sensor_id;sensor_type;location;lat;lon;timestamp;temperature;humidity
16441;DHT22;8330;-33.858;151.184;2024-03-07T00:02:04;26.20;99.90
16441;DHT22;8330;-33.858;151.184;2024-03-07T00:04:37;26.20;99.90
16441;DHT22;8330;-33.858;151.184;2024-03-07T00:07:13;26.10;99.90
16441;DHT22;8330;-33.858;151.184;2024-03-07T00:09:48;26.10;99.90
16441;DHT22;8330;-33.858;151.184;2024-03-07T00:12:21;26.10;99.90
16441;DHT22;8330;-33.858;151.184;2024-03-07T00:14:52;26.10;99.90
16441;DHT22;8330;-33.858;151.184;2024-03-07T00:17:23;26.10;99.90
16441;DHT22;8330;-33.858;151.184;2024-03-07T00:19:53;26.10;99.90
16441;DHT22;8330;-33.858;151.184;2024-03-07T00:22:24;26.10;99.90
16441;DHT22;8330;-33.858;151.184;2024-03-07T00:24:59;26.00;99.90
16441;DHT22;8330;-33.858;151.184;2024-03-07T00:27:30;26.00;99.90
16441;DHT22;8330;-33.858;151.184;2024-03-07T00:30:00;26.10;99.90
16441;DHT22;8330;-33.858;151.184;2024-03-07T00:32:33;26.10;99.90
16441;DHT22;8330;-33.858;151.184;2024-03-07T00:35:07;26.20;99.90
16441;DHT22;8330;-33.858;151.184;2024-03-07T00:37:38;26.20;99.90
16441;DHT22;8330;-33.858;151.184;2024-03-07T00:40:12;26.20;99.90
16441;DHT22;8330;-33.858;151.184;2024-03-07T00:42:43;26.10;99.90
16441;DHT22;8330;-33.858;151.184;2024-03-07T00:45:13;26.10;99.90
16441;DHT22;8330;-33.858;151.184;2024-03-07T00:47:44;26.00;99.90
16441;DHT22;8330;-33.858;151.184;2024-03-07T00:50:16;26.10;99.90
16441;DHT22;8330;-33.858;151.184;2024-03-07T00:52:47;26.20;99.90
16441;DHT22;8330;-33.858;151.184;2024-03-07T00:55:19;26.30;99.90
16441;DHT22;8330;-33.858;151.184;2024-03-07T00:57:50;26.40;99.90
16441;DHT22;8330;-33.858;151.184;2024-03-07T01:00:21;26.60;99.90
16441;DHT22;8330;-33.858;151.184;2024-03-07T01:02:52;26.60;99.90
16441;DHT22;8330;-33.858;151.184;2024-03-07T01:05:22;26.60;99.90
16441;DHT22;8330;-33.858;151.184;2024-03-07T01:07:53;26.70;99.90
16441;DHT22;8330;-33.858;151.184;2024-03-07T01:10:26;26.80;99.90
16441;DHT22;8330;-33.858;151.184;2024-03-07T01:12:57;26.70;99.90
16441;DHT22;8330;-33.858;151.184;2024-03-07T01:15:29;26.80;99.90
16441;DHT22;8330;-33.858;151.184;2024-03-07T01:18:00;26.80;99.90
16441;DHT22;8330;-33.858;151.184;2024-03-07T01:20:31;26.90;99.90
16441;DHT22;8330;-33.858;151.184;2024-03-07T01:23:02;27.00;99.90
16441;DHT22;8330;-33.858;151.184;2024-03-07T01:25:34;27.00;99.90
16441;DHT22;8330;-33.858;151.184;2024-03-07T01:28:05;27.10;99.90
16441;DHT22;8330;-33.858;151.184;2024-03-07T01:30:40;27.10;99.90
16441;DHT22;8330;-33.858;151.184;2024-03-07T01:33:10;27.20;99.90
16441;DHT22;8330;-33.858;151.184;2024-03-07T01:35:41;27.20;99.90
16441;DHT22;8330;-33.858;151.184;2024-03-07T01:38:12;27.20;99.90
16441;DHT22;8330;-33.858;151.184;2024-03-07T01:40:45;27.30;99.90
16441;DHT22;8330;-33.858;151.184;2024-03-07T01:43:16;27.30;99.90
16441;DHT22;8330;-33.858;151.184;2024-03-07T01:45:48;27.20;99.90
16441;DHT22;8330;-33.858;151.184;2024-03-07T01:48:25;27.20;99.90
16441;DHT22;8330;-33.858;151.184;2024-03-07T01:50:57;27.20;99.90
16441;DHT22;8330;-33.858;151.184;2024-03-07T01:53:31;27.20;99.90
16441;DHT22;8330;-33.858;151.184;2024-03-07T01:56:06;27.10;99.90
16441;DHT22;8330;-33.858;151.184;2024-03-07T01:58:38;27.10;99.90
16441;DHT22;8330;-33.858;151.184;2024-03-07T02:01:09;27.30;99.90
16441;DHT22;8330;-33.858;151.184;2024-03-07T02:03:42;27.40;99.90
16441;DHT22;8330;-33.858;151.184;2024-03-07T02:06:13;27.40;99.90
16441;DHT22;8330;-33.858;151.184;2024-03-07T02:08:44;27.40;99.90
16441;DHT22;8330;-33.858;151.184;2024-03-07T02:11:17;27.40;99.90
16441;DHT22;8330;-33.858;151.184;2024-03-07T02:13:49;27.50;99.90
16441;DHT22;8330;-33.858;151.184;2024-03-07T02:16:19;27.50;99.90
16441;DHT22;8330;-33.858;151.184;2024-03-07T02:18:51;27.50;99.90
16441;DHT22;8330;-33.858;151.184;2024-03-07T02:21:24;27.40;99.90
16441;DHT22;8330;-33.858;151.184;2024-03-07T02:24:00;27.40;99.90
16441;DHT22;8330;-33.858;151.184;2024-03-07T02:26:30;27.40;99.90
16441;DHT22;8330;-33.858;151.184;2024-03-07T02:29:01;27.40;99.90
16441;DHT22;8330;-33.858;151.184;2024-03-07T02:31:32;27.30;99.90
16441;DHT22;8330;-33.858;151.184;2024-03-07T02:34:05;27.30;99.90
16441;DHT22;8330;-33.858;151.184;2024-03-07T02:36:37;27.40;99.90
16441;DHT22;8330;-33.858;151.184;2024-03-07T02:39:08;27.40;99.90
16441;DHT22;8330;-33.858;151.184;2024-03-07T02:41:39;27.40;99.90
16441;DHT22;8330;-33.858;151.184;2024-03-07T02:44:10;27.50;99.90
16441;DHT22;8330;-33.858;151.184;2024-03-07T02:46:41;27.40;99.90
16441;DHT22;8330;-33.858;151.184;2024-03-07T02:49:12;27.40;99.90
16441;DHT22;8330;-33.858;151.184;2024-03-07T02:51:44;27.40;99.90
16441;DHT22;8330;-33.858;151.184;2024-03-07T02:54:15;27.40;99.90
16441;DHT22;8330;-33.858;151.184;2024-03-07T02:56:46;27.40;99.90
16441;DHT22;8330;-33.858;151.184;2024-03-07T02:59:17;27.40;99.90
16441;DHT22;8330;-33.858;151.184;2024-03-07T03:01:47;27.40;99.90
16441;DHT22;8330;-33.858;151.184;2024-03-07T03:04:18;27.40;99.90
16441;DHT22;8330;-33.858;151.184;2024-03-07T03:06:51;27.40;99.90
16441;DHT22;8330;-33.858;151.184;2024-03-07T03:09:22;27.50;99.90
16441;DHT22;8330;-33.858;151.184;2024-03-07T03:11:55;27.50;99.90
16441;DHT22;8330;-33.858;151.184;2024-03-07T03:14:27;27.70;99.90
16441;DHT22;8330;-33.858;151.184;2024-03-07T03:17:00;27.80;99.90
16441;DHT22;8330;-33.858;151.184;2024-03-07T03:19:31;27.90;99.90
16441;DHT22;8330;-33.858;151.184;2024-03-07T03:22:05;28.00;99.90
16441;DHT22;8330;-33.858;151.184;2024-03-07T03:24:36;28.00;99.90
16441;DHT22;8330;-33.858;151.184;2024-03-07T03:27:09;28.10;99.90
16441;DHT22;8330;-33.858;151.184;2024-03-07T03:29:40;28.10;99.90
16441;DHT22;8330;-33.858;151.184;2024-03-07T03:32:12;28.10;99.90
16441;DHT22;8330;-33.858;151.184;2024-03-07T03:34:43;27.90;99.90
16441;DHT22;8330;-33.858;151.184;2024-03-07T03:37:16;27.90;99.90
16441;DHT22;8330;-33.858;151.184;2024-03-07T03:39:49;27.80;99.90
16441;DHT22;8330;-33.858;151.184;2024-03-07T03:42:20;27.80;99.90
16441;DHT22;8330;-33.858;151.184;2024-03-07T03:44:51;27.90;99.90
16441;DHT22;8330;-33.858;151.184;2024-03-07T03:47:22;27.90;99.90
16441;DHT22;8330;-33.858;151.184;2024-03-07T03:49:52;28.10;99.90
16441;DHT22;8330;-33.858;151.184;2024-03-07T03:52:25;28.20;99.90
16441;DHT22;8330;-33.858;151.184;2024-03-07T03:54:56;28.20;99.90
16441;DHT22;8330;-33.858;151.184;2024-03-07T03:57:28;28.20;99.90
16441;DHT22;8330;-33.858;151.184;2024-03-07T03:59:59;28.10;99.90
16441;DHT22;8330;-33.858;151.184;2024-03-07T04:02:35;27.90;99.90
16441;DHT22;8330;-33.858;151.184;2024-03-07T04:05:07;27.90;99.90
16441;DHT22;8330;-33.858;151.184;2024-03-07T04:07:41;27.70;99.90
16441;DHT22;8330;-33.858;151.184;2024-03-07T04:10:12;27.80;99.90
16441;DHT22;8330;-33.858;151.184;2024-03-07T04:12:44;27.70;99.90
16441;DHT22;8330;-33.858;151.184;2024-03-07T04:15:15;27.70;99.90
16441;DHT22;8330;-33.858;151.184;2024-03-07T04:17:46;27.70;99.90
16441;DHT22;8330;-33.858;151.184;2024-03-07T04:20:17;27.80;99.90
16441;DHT22;8330;-33.858;151.184;2024-03-07T04:22:49;27.70;99.90
16441;DHT22;8330;-33.858;151.184;2024-03-07T04:25:20;27.60;99.90
16441;DHT22;8330;-33.858;151.184;2024-03-07T04:27:52;27.50;99.90
16441;DHT22;8330;-33.858;151.184;2024-03-07T04:30:24;27.50;99.90
16441;DHT22;8330;-33.858;151.184;2024-03-07T04:32:54;27.50;99.90
16441;DHT22;8330;-33.858;151.184;2024-03-07T04:35:26;27.50;99.90
16441;DHT22;8330;-33.858;151.184;2024-03-07T04:37:58;27.40;99.90
16441;DHT22;8330;-33.858;151.184;2024-03-07T04:40:29;27.30;99.90
16441;DHT22;8330;-33.858;151.184;2024-03-07T04:43:00;27.30;99.90
16441;DHT22;8330;-33.858;151.184;2024-03-07T04:45:31;27.40;99.90
16441;DHT22;8330;-33.858;151.184;2024-03-07T04:48:02;27.30;99.90
16441;DHT22;8330;-33.858;151.184;2024-03-07T04:50:33;27.40;99.90
16441;DHT22;8330;-33.858;151.184;2024-03-07T04:53:06;27.40;99.90
16441;DHT22;8330;-33.858;151.184;2024-03-07T04:55:37;27.50;99.90
16441;DHT22;8330;-33.858;151.184;2024-03-07T04:58:08;27.40;99.90
16441;DHT22;8330;-33.858;151.184;2024-03-07T05:00:39;27.40;99.90
16441;DHT22;8330;-33.858;151.184;2024-03-07T05:03:09;27.40;99.90
16441;DHT22;8330;-33.858;151.184;2024-03-07T05:05:40;27.40;99.90
16441;DHT22;8330;-33.858;151.184;2024-03-07T05:08:13;27.40;99.90
16441;DHT22;8330;-33.858;151.184;2024-03-07T05:10:44;27.50;99.90
16441;DHT22;8330;-33.858;151.184;2024-03-07T05:13:15;27.50;99.90
16441;DHT22;8330;-33.858;151.184;2024-03-07T05:15:46;27.50;99.90
16441;DHT22;8330;-33.858;151.184;2024-03-07T05:18:18;27.50;99.90
16441;DHT22;8330;-33.858;151.184;2024-03-07T05:20:49;27.40;99.90
16441;DHT22;8330;-33.858;151.184;2024-03-07T05:23:24;27.50;99.90
16441;DHT22;8330;-33.858;151.184;2024-03-07T05:25:55;27.40;99.90
16441;DHT22;8330;-33.858;151.184;2024-03-07T05:28:26;27.40;99.90
16441;DHT22;8330;-33.858;151.184;2024-03-07T05:30:58;27.20;99.90
16441;DHT22;8330;-33.858;151.184;2024-03-07T05:33:31;27.10;99.90
16441;DHT22;8330;-33.858;151.184;2024-03-07T05:36:02;27.00;99.90
16441;DHT22;8330;-33.858;151.184;2024-03-07T05:38:44;26.90;99.90
16441;DHT22;8330;-33.858;151.184;2024-03-07T05:41:15;26.80;99.90
16441;DHT22;8330;-33.858;151.184;2024-03-07T05:43:46;26.80;99.90
16441;DHT22;8330;-33.858;151.184;2024-03-07T05:46:18;26.70;99.90
16441;DHT22;8330;-33.858;151.184;2024-03-07T05:48:49;26.70;99.90
16441;DHT22;8330;-33.858;151.184;2024-03-07T05:51:24;26.70;99.90
16441;DHT22;8330;-33.858;151.184;2024-03-07T05:53:57;26.80;99.90
16441;DHT22;8330;-33.858;151.184;2024-03-07T05:56:27;26.90;99.90
16441;DHT22;8330;-33.858;151.184;2024-03-07T05:58:58;27.10;99.90
16441;DHT22;8330;-33.858;151.184;2024-03-07T06:01:31;27.30;99.90
16441;DHT22;8330;-33.858;151.184;2024-03-07T06:04:04;27.40;99.90
16441;DHT22;8330;-33.858;151.184;2024-03-07T06:06:38;27.50;99.90
16441;DHT22;8330;-33.858;151.184;2024-03-07T06:09:11;27.70;99.90
16441;DHT22;8330;-33.858;151.184;2024-03-07T06:11:42;27.70;99.90
16441;DHT22;8330;-33.858;151.184;2024-03-07T06:14:13;27.70;99.90
16441;DHT22;8330;-33.858;151.184;2024-03-07T06:16:44;27.80;99.90
16441;DHT22;8330;-33.858;151.184;2024-03-07T06:19:14;27.90;99.90
16441;DHT22;8330;-33.858;151.184;2024-03-07T06:21:45;27.90;99.90
16441;DHT22;8330;-33.858;151.184;2024-03-07T06:24:18;28.10;99.90
16441;DHT22;8330;-33.858;151.184;2024-03-07T06:26:50;28.40;99.90
16441;DHT22;8330;-33.858;151.184;2024-03-07T06:29:27;28.60;99.90
16441;DHT22;8330;-33.858;151.184;2024-03-07T06:31:58;28.80;99.90
16441;DHT22;8330;-33.858;151.184;2024-03-07T06:34:29;29.00;99.90
16441;DHT22;8330;-33.858;151.184;2024-03-07T06:37:02;29.00;99.90
16441;DHT22;8330;-33.858;151.184;2024-03-07T06:39:35;29.10;99.90
16441;DHT22;8330;-33.858;151.184;2024-03-07T06:42:06;29.20;99.90
16441;DHT22;8330;-33.858;151.184;2024-03-07T06:44:40;29.20;99.90
16441;DHT22;8330;-33.858;151.184;2024-03-07T06:47:10;29.20;99.90
16441;DHT22;8330;-33.858;151.184;2024-03-07T06:49:41;29.20;99.90
16441;DHT22;8330;-33.858;151.184;2024-03-07T06:52:13;29.20;99.90
16441;DHT22;8330;-33.858;151.184;2024-03-07T06:54:47;28.70;99.90
16441;DHT22;8330;-33.858;151.184;2024-03-07T06:57:18;28.50;99.90
16441;DHT22;8330;-33.858;151.184;2024-03-07T06:59:49;28.10;99.90
16441;DHT22;8330;-33.858;151.184;2024-03-07T07:02:20;27.80;99.90
16441;DHT22;8330;-33.858;151.184;2024-03-07T07:04:51;27.70;99.90
16441;DHT22;8330;-33.858;151.184;2024-03-07T07:07:21;27.80;99.90
16441;DHT22;8330;-33.858;151.184;2024-03-07T07:09:54;28.00;99.90
16441;DHT22;8330;-33.858;151.184;2024-03-07T07:12:25;27.90;99.90
16441;DHT22;8330;-33.858;151.184;2024-03-07T07:14:56;27.80;99.90
16441;DHT22;8330;-33.858;151.184;2024-03-07T07:17:27;27.60;99.90
16441;DHT22;8330;-33.858;151.184;2024-03-07T07:19:58;27.50;99.90
16441;DHT22;8330;-33.858;151.184;2024-03-07T07:22:29;27.40;99.90
16441;DHT22;8330;-33.858;151.184;2024-03-07T07:25:03;27.40;99.90
16441;DHT22;8330;-33.858;151.184;2024-03-07T07:27:43;27.30;99.90
16441;DHT22;8330;-33.858;151.184;2024-03-07T07:30:15;27.10;99.90
16441;DHT22;8330;-33.858;151.184;2024-03-07T07:32:46;27.00;99.90
16441;DHT22;8330;-33.858;151.184;2024-03-07T07:35:17;26.90;99.90
16441;DHT22;8330;-33.858;151.184;2024-03-07T07:37:49;26.80;99.90
16441;DHT22;8330;-33.858;151.184;2024-03-07T07:40:23;26.70;99.90
16441;DHT22;8330;-33.858;151.184;2024-03-07T07:42:55;26.60;99.90
16441;DHT22;8330;-33.858;151.184;2024-03-07T07:45:28;26.60;99.90
16441;DHT22;8330;-33.858;151.184;2024-03-07T07:48:00;26.50;99.90
16441;DHT22;8330;-33.858;151.184;2024-03-07T07:50:31;26.40;99.90
16441;DHT22;8330;-33.858;151.184;2024-03-07T07:53:02;26.40;99.90
16441;DHT22;8330;-33.858;151.184;2024-03-07T07:55:38;26.40;99.90
16441;DHT22;8330;-33.858;151.184;2024-03-07T07:58:09;26.30;99.90
16441;DHT22;8330;-33.858;151.184;2024-03-07T08:00:40;26.30;99.90
16441;DHT22;8330;-33.858;151.184;2024-03-07T08:03:11;26.20;99.90
16441;DHT22;8330;-33.858;151.184;2024-03-07T08:05:43;26.20;99.90
16441;DHT22;8330;-33.858;151.184;2024-03-07T08:08:14;26.20;99.90
16441;DHT22;8330;-33.858;151.184;2024-03-07T08:10:47;26.20;99.90
16441;DHT22;8330;-33.858;151.184;2024-03-07T08:13:18;26.10;99.90
16441;DHT22;8330;-33.858;151.184;2024-03-07T08:15:49;26.10;99.90
16441;DHT22;8330;-33.858;151.184;2024-03-07T08:18:21;26.00;99.90
16441;DHT22;8330;-33.858;151.184;2024-03-07T08:20:52;26.00;99.90
16441;DHT22;8330;-33.858;151.184;2024-03-07T08:23:23;26.00;99.90
16441;DHT22;8330;-33.858;151.184;2024-03-07T08:25:56;25.90;99.90
16441;DHT22;8330;-33.858;151.184;2024-03-07T08:28:27;25.90;99.90
16441;DHT22;8330;-33.858;151.184;2024-03-07T08:30:57;25.90;99.90
16441;DHT22;8330;-33.858;151.184;2024-03-07T08:33:29;25.90;99.90
16441;DHT22;8330;-33.858;151.184;2024-03-07T08:36:01;25.80;99.90
16441;DHT22;8330;-33.858;151.184;2024-03-07T08:38:32;25.80;99.90
16441;DHT22;8330;-33.858;151.184;2024-03-07T08:41:06;25.80;99.90
16441;DHT22;8330;-33.858;151.184;2024-03-07T08:43:39;25.70;99.90
16441;DHT22;8330;-33.858;151.184;2024-03-07T08:46:11;25.70;99.90
16441;DHT22;8330;-33.858;151.184;2024-03-07T08:48:41;25.70;99.90
16441;DHT22;8330;-33.858;151.184;2024-03-07T08:51:13;25.60;99.90
16441;DHT22;8330;-33.858;151.184;2024-03-07T08:53:44;25.60;99.90
16441;DHT22;8330;-33.858;151.184;2024-03-07T08:56:16;25.60;99.90
16441;DHT22;8330;-33.858;151.184;2024-03-07T08:58:47;25.60;99.90
16441;DHT22;8330;-33.858;151.184;2024-03-07T09:01:18;25.60;99.90
16441;DHT22;8330;-33.858;151.184;2024-03-07T09:03:48;25.60;99.90
16441;DHT22;8330;-33.858;151.184;2024-03-07T09:06:19;25.60;99.90
16441;DHT22;8330;-33.858;151.184;2024-03-07T09:08:50;25.60;99.90
16441;DHT22;8330;-33.858;151.184;2024-03-07T09:11:23;25.60;99.90
16441;DHT22;8330;-33.858;151.184;2024-03-07T09:13:53;25.60;99.90
16441;DHT22;8330;-33.858;151.184;2024-03-07T09:16:24;25.50;99.90
16441;DHT22;8330;-33.858;151.184;2024-03-07T09:18:55;25.50;99.90
16441;DHT22;8330;-33.858;151.184;2024-03-07T09:21:26;25.50;99.90
16441;DHT22;8330;-33.858;151.184;2024-03-07T09:23:57;25.50;99.90
16441;DHT22;8330;-33.858;151.184;2024-03-07T09:26:30;25.50;99.90
16441;DHT22;8330;-33.858;151.184;2024-03-07T09:29:00;25.50;99.90
16441;DHT22;8330;-33.858;151.184;2024-03-07T09:31:34;25.60;99.90
16441;DHT22;8330;-33.858;151.184;2024-03-07T09:34:07;25.60;99.90
16441;DHT22;8330;-33.858;151.184;2024-03-07T09:36:38;25.60;99.90
16441;DHT22;8330;-33.858;151.184;2024-03-07T09:39:09;25.60;99.90
16441;DHT22;8330;-33.858;151.184;2024-03-07T09:41:42;25.50;99.90
16441;DHT22;8330;-33.858;151.184;2024-03-07T09:44:15;25.50;99.90
16441;DHT22;8330;-33.858;151.184;2024-03-07T09:46:52;25.50;99.90
16441;DHT22;8330;-33.858;151.184;2024-03-07T09:49:24;25.50;99.90
16441;DHT22;8330;-33.858;151.184;2024-03-07T09:51:57;25.40;99.90
16441;DHT22;8330;-33.858;151.184;2024-03-07T09:54:29;25.40;99.90
16441;DHT22;8330;-33.858;151.184;2024-03-07T09:57:04;25.50;99.90
16441;DHT22;8330;-33.858;151.184;2024-03-07T09:59:36;25.50;99.90
16441;DHT22;8330;-33.858;151.184;2024-03-07T10:02:08;25.50;99.90
16441;DHT22;8330;-33.858;151.184;2024-03-07T10:04:44;25.50;99.90
16441;DHT22;8330;-33.858;151.184;2024-03-07T10:07:18;25.50;99.90
16441;DHT22;8330;-33.858;151.184;2024-03-07T10:09:50;25.60;99.90
16441;DHT22;8330;-33.858;151.184;2024-03-07T10:12:26;25.60;99.90
16441;DHT22;8330;-33.858;151.184;2024-03-07T10:15:02;25.60;99.90
16441;DHT22;8330;-33.858;151.184;2024-03-07T10:17:33;25.70;99.90
16441;DHT22;8330;-33.858;151.184;2024-03-07T10:20:05;25.70;99.90
16441;DHT22;8330;-33.858;151.184;2024-03-07T10:22:37;25.70;99.90
16441;DHT22;8330;-33.858;151.184;2024-03-07T10:25:09;25.60;99.90
16441;DHT22;8330;-33.858;151.184;2024-03-07T10:27:41;25.60;99.90
16441;DHT22;8330;-33.858;151.184;2024-03-07T10:30:13;25.60;99.90
16441;DHT22;8330;-33.858;151.184;2024-03-07T10:32:49;25.60;99.90
16441;DHT22;8330;-33.858;151.184;2024-03-07T10:35:23;25.60;99.90
16441;DHT22;8330;-33.858;151.184;2024-03-07T10:37:54;25.60;99.90
16441;DHT22;8330;-33.858;151.184;2024-03-07T10:40:28;25.60;99.90
16441;DHT22;8330;-33.858;151.184;2024-03-07T10:43:01;25.60;99.90
16441;DHT22;8330;-33.858;151.184;2024-03-07T10:45:42;25.60;99.90
16441;DHT22;8330;-33.858;151.184;2024-03-07T10:48:17;25.60;99.90
16441;DHT22;8330;-33.858;151.184;2024-03-07T10:50:55;25.60;99.90
16441;DHT22;8330;-33.858;151.184;2024-03-07T10:53:34;25.50;99.90
16441;DHT22;8330;-33.858;151.184;2024-03-07T10:56:22;25.50;99.90
16441;DHT22;8330;-33.858;151.184;2024-03-07T10:59:05;25.50;99.90
16441;DHT22;8330;-33.858;151.184;2024-03-07T11:01:43;25.50;99.90
16441;DHT22;8330;-33.858;151.184;2024-03-07T11:04:17;25.60;99.90
16441;DHT22;8330;-33.858;151.184;2024-03-07T11:06:50;25.50;99.90
16441;DHT22;8330;-33.858;151.184;2024-03-07T11:09:22;25.50;99.90
16441;DHT22;8330;-33.858;151.184;2024-03-07T11:11:57;25.60;99.90
16441;DHT22;8330;-33.858;151.184;2024-03-07T11:14:33;25.60;99.90
16441;DHT22;8330;-33.858;151.184;2024-03-07T11:17:05;25.60;99.90
16441;DHT22;8330;-33.858;151.184;2024-03-07T11:19:36;25.60;99.90
16441;DHT22;8330;-33.858;151.184;2024-03-07T11:22:07;25.50;99.90
16441;DHT22;8330;-33.858;151.184;2024-03-07T11:24:44;25.60;99.90
16441;DHT22;8330;-33.858;151.184;2024-03-07T11:27:15;25.50;99.90
16441;DHT22;8330;-33.858;151.184;2024-03-07T11:29:51;25.50;99.90
16441;DHT22;8330;-33.858;151.184;2024-03-07T11:32:22;25.50;99.90
16441;DHT22;8330;-33.858;151.184;2024-03-07T11:34:55;25.50;99.90
16441;DHT22;8330;-33.858;151.184;2024-03-07T11:37:40;25.50;99.90
16441;DHT22;8330;-33.858;151.184;2024-03-07T11:40:14;25.50;99.90
16441;DHT22;8330;-33.858;151.184;2024-03-07T11:43:05;25.50;99.90
16441;DHT22;8330;-33.858;151.184;2024-03-07T11:45:38;25.50;99.90
16441;DHT22;8330;-33.858;151.184;2024-03-07T11:48:12;25.50;99.90
16441;DHT22;8330;-33.858;151.184;2024-03-07T11:50:43;25.50;99.90
16441;DHT22;8330;-33.858;151.184;2024-03-07T11:53:14;25.50;99.90
16441;DHT22;8330;-33.858;151.184;2024-03-07T11:55:45;25.50;99.90
16441;DHT22;8330;-33.858;151.184;2024-03-07T11:58:17;25.50;99.90
16441;DHT22;8330;-33.858;151.184;2024-03-07T12:00:51;25.50;99.90
16441;DHT22;8330;-33.858;151.184;2024-03-07T12:03:22;25.50;99.90
16441;DHT22;8330;-33.858;151.184;2024-03-07T12:05:53;25.50;99.90
16441;DHT22;8330;-33.858;151.184;2024-03-07T12:08:24;25.40;99.90
16441;DHT22;8330;-33.858;151.184;2024-03-07T12:10:57;25.50;99.90
16441;DHT22;8330;-33.858;151.184;2024-03-07T12:13:28;25.50;99.90
16441;DHT22;8330;-33.858;151.184;2024-03-07T12:16:00;25.50;99.90
16441;DHT22;8330;-33.858;151.184;2024-03-07T12:18:31;25.40;99.90
16441;DHT22;8330;-33.858;151.184;2024-03-07T12:21:02;25.40;99.90
16441;DHT22;8330;-33.858;151.184;2024-03-07T12:23:38;25.50;99.90
16441;DHT22;8330;-33.858;151.184;2024-03-07T12:26:10;25.40;99.90
16441;DHT22;8330;-33.858;151.184;2024-03-07T12:28:44;25.50;99.90
16441;DHT22;8330;-33.858;151.184;2024-03-07T12:31:18;25.50;99.90
16441;DHT22;8330;-33.858;151.184;2024-03-07T12:33:53;25.50;99.90
16441;DHT22;8330;-33.858;151.184;2024-03-07T12:36:24;25.50;99.90
16441;DHT22;8330;-33.858;151.184;2024-03-07T12:39:02;25.50;99.90
16441;DHT22;8330;-33.858;151.184;2024-03-07T12:41:52;25.50;99.90
16441;DHT22;8330;-33.858;151.184;2024-03-07T12:44:23;25.50;99.90
16441;DHT22;8330;-33.858;151.184;2024-03-07T12:46:56;25.40;99.90
16441;DHT22;8330;-33.858;151.184;2024-03-07T12:49:27;25.50;99.90
16441;DHT22;8330;-33.858;151.184;2024-03-07T12:51:58;25.40;99.90
16441;DHT22;8330;-33.858;151.184;2024-03-07T12:54:28;25.40;99.90
16441;DHT22;8330;-33.858;151.184;2024-03-07T12:56:59;25.30;99.90
16441;DHT22;8330;-33.858;151.184;2024-03-07T12:59:33;25.40;99.90
16441;DHT22;8330;-33.858;151.184;2024-03-07T13:02:07;25.30;99.90
16441;DHT22;8330;-33.858;151.184;2024-03-07T13:04:38;25.20;99.90
16441;DHT22;8330;-33.858;151.184;2024-03-07T13:07:09;25.20;99.90
16441;DHT22;8330;-33.858;151.184;2024-03-07T13:09:42;25.20;99.90
16441;DHT22;8330;-33.858;151.184;2024-03-07T13:12:16;25.20;99.90
16441;DHT22;8330;-33.858;151.184;2024-03-07T13:14:46;25.20;99.90
16441;DHT22;8330;-33.858;151.184;2024-03-07T13:17:19;25.10;99.90
16441;DHT22;8330;-33.858;151.184;2024-03-07T13:19:51;25.00;99.90
16441;DHT22;8330;-33.858;151.184;2024-03-07T13:22:27;24.90;99.90
16441;DHT22;8330;-33.858;151.184;2024-03-07T13:24:58;24.90;99.90
16441;DHT22;8330;-33.858;151.184;2024-03-07T13:27:31;24.80;99.90
16441;DHT22;8330;-33.858;151.184;2024-03-07T13:30:03;24.80;99.90
16441;DHT22;8330;-33.858;151.184;2024-03-07T13:32:37;24.80;99.90
16441;DHT22;8330;-33.858;151.184;2024-03-07T13:35:08;24.80;99.90
16441;DHT22;8330;-33.858;151.184;2024-03-07T13:37:39;24.70;99.90
16441;DHT22;8330;-33.858;151.184;2024-03-07T13:40:10;24.70;99.90
16441;DHT22;8330;-33.858;151.184;2024-03-07T13:42:53;24.70;99.90
16441;DHT22;8330;-33.858;151.184;2024-03-07T13:45:25;24.60;99.90
16441;DHT22;8330;-33.858;151.184;2024-03-07T13:48:00;24.70;99.90
16441;DHT22;8330;-33.858;151.184;2024-03-07T13:50:34;24.60;99.90
16441;DHT22;8330;-33.858;151.184;2024-03-07T13:53:05;24.60;99.90
16441;DHT22;8330;-33.858;151.184;2024-03-07T13:55:59;24.70;99.90
16441;DHT22;8330;-33.858;151.184;2024-03-07T13:58:46;24.70;99.90
16441;DHT22;8330;-33.858;151.184;2024-03-07T14:01:31;24.70;99.90
16441;DHT22;8330;-33.858;151.184;2024-03-07T14:10:40;24.70;99.90
16441;DHT22;8330;-33.858;151.184;2024-03-07T14:13:39;24.70;99.90
16441;DHT22;8330;-33.858;151.184;2024-03-07T14:20:23;24.70;99.90
16441;DHT22;8330;-33.858;151.184;2024-03-07T14:23:19;24.70;99.90
16441;DHT22;8330;-33.858;151.184;2024-03-07T14:26:04;24.80;99.90
16441;DHT22;8330;-33.858;151.184;2024-03-07T14:29:01;24.70;99.90
16441;DHT22;8330;-33.858;151.184;2024-03-07T14:31:33;24.70;99.90
16441;DHT22;8330;-33.858;151.184;2024-03-07T14:34:14;24.70;99.90
16441;DHT22;8330;-33.858;151.184;2024-03-07T14:36:50;24.70;99.90
16441;DHT22;8330;-33.858;151.184;2024-03-07T14:39:27;24.70;99.90
16441;DHT22;8330;-33.858;151.184;2024-03-07T14:42:04;24.70;99.90
16441;DHT22;8330;-33.858;151.184;2024-03-07T14:44:38;24.60;99.90
16441;DHT22;8330;-33.858;151.184;2024-03-07T14:47:09;24.50;99.90
16441;DHT22;8330;-33.858;151.184;2024-03-07T14:49:42;24.50;99.90
16441;DHT22;8330;-33.858;151.184;2024-03-07T14:52:13;24.50;99.90
16441;DHT22;8330;-33.858;151.184;2024-03-07T14:54:46;24.40;99.90
16441;DHT22;8330;-33.858;151.184;2024-03-07T14:57:17;24.40;99.90
16441;DHT22;8330;-33.858;151.184;2024-03-07T14:59:48;24.30;99.90
16441;DHT22;8330;-33.858;151.184;2024-03-07T15:02:19;24.40;99.90
16441;DHT22;8330;-33.858;151.184;2024-03-07T15:04:51;24.30;99.90
16441;DHT22;8330;-33.858;151.184;2024-03-07T15:07:22;24.30;99.90
16441;DHT22;8330;-33.858;151.184;2024-03-07T15:09:55;24.30;99.90
16441;DHT22;8330;-33.858;151.184;2024-03-07T15:12:26;24.20;99.90
16441;DHT22;8330;-33.858;151.184;2024-03-07T15:14:57;24.30;99.90
16441;DHT22;8330;-33.858;151.184;2024-03-07T15:17:28;24.30;99.90
16441;DHT22;8330;-33.858;151.184;2024-03-07T15:19:58;24.30;99.90
16441;DHT22;8330;-33.858;151.184;2024-03-07T15:22:29;24.30;99.90
16441;DHT22;8330;-33.858;151.184;2024-03-07T15:25:02;24.30;99.90
16441;DHT22;8330;-33.858;151.184;2024-03-07T15:27:41;24.30;99.90
16441;DHT22;8330;-33.858;151.184;2024-03-07T15:30:11;24.30;99.90
16441;DHT22;8330;-33.858;151.184;2024-03-07T15:32:43;24.30;99.90
16441;DHT22;8330;-33.858;151.184;2024-03-07T15:35:14;24.30;99.90
16441;DHT22;8330;-33.858;151.184;2024-03-07T15:37:46;24.30;99.90
16441;DHT22;8330;-33.858;151.184;2024-03-07T15:40:19;24.30;99.90
16441;DHT22;8330;-33.858;151.184;2024-03-07T15:42:52;24.20;99.90
16441;DHT22;8330;-33.858;151.184;2024-03-07T15:45:24;24.20;99.90
16441;DHT22;8330;-33.858;151.184;2024-03-07T15:47:56;24.20;99.90